CheckWX is a tool to help pilots better visualize weather data.  It is not intended as a substitute for an official pre-flight weather briefing.

02:54:45 UTC

KLFT METAR
Lafayette Regional / Paul Fournet Field Airport
Lafayette, Louisiana, USA
Current

1 hour ago

KLFT 240153Z 18004KT 10SM CLR 17/09 A3018 RMK AO2 SLP219 T01720089
Observed
Mar-24 @ 01:53 UTC
Wind
  • 180° at 4 KTS
Visibility
10 SM
Flight Rules
VFR
Cloud Levels
  • Clear skies
Temperature
17°C / 63°F
Dewpoint
C / 48°F
Humidity
59%
Altimeter
30.18" Hg
Pressure
1021.9 hPa
Previous

2 hours ago

KLFT 240053Z 18007KT 10SM CLR 18/06 A3017 RMK AO2 SLP216 T01830061
Observed
Mar-24 @ 00:53 UTC
Wind
  • 180° at 7 KTS
Visibility
10 SM
Flight Rules
VFR
Cloud Levels
  • Clear skies
Temperature
18°C / 64°F
Dewpoint
C / 43°F
Humidity
46%
Altimeter
30.17" Hg
Pressure
1021.6 hPa
Previous

3 hours ago

KLFT 232353Z 18008G17KT 10SM CLR 21/07 A3016 RMK AO2 SLP211 T02110067 10250 20211 53004
Observed
Mar-23 @ 23:53 UTC
Wind
  • 180° at 8 KTS
  • Gusting to 17 KTS
Visibility
10 SM
Flight Rules
VFR
Cloud Levels
  • Clear skies
Temperature
21°C / 70°F
Dewpoint
C / 45°F
Humidity
40%
Altimeter
30.16" Hg
Pressure
1021.1 hPa